sensor_id;sensor_type;location;lat;lon;timestamp;P1;durP1;ratioP1;P2;durP2;ratioP2
59054;SDS011;44845;51.444;7.460;2023-08-07T00:01:41;2.88;;;0.70;;
59054;SDS011;44845;51.444;7.460;2023-08-07T00:04:07;2.60;;;0.60;;
59054;SDS011;44845;51.444;7.460;2023-08-07T00:06:32;5.35;;;0.52;;
59054;SDS011;44845;51.444;7.460;2023-08-07T00:08:58;3.33;;;0.50;;
59054;SDS011;44845;51.444;7.460;2023-08-07T00:11:23;1.67;;;0.50;;
59054;SDS011;44845;51.444;7.460;2023-08-07T00:13:48;1.60;;;0.50;;
59054;SDS011;44845;51.444;7.460;2023-08-07T00:16:14;0.45;;;0.20;;
59054;SDS011;44845;51.444;7.460;2023-08-07T00:18:39;2.90;;;0.50;;
59054;SDS011;44845;51.444;7.460;2023-08-07T00:21:04;1.00;;;0.40;;
59054;SDS011;44845;51.444;7.460;2023-08-07T00:23:30;0.77;;;0.40;;
59054;SDS011;44845;51.444;7.460;2023-08-07T00:25:55;1.70;;;0.40;;
59054;SDS011;44845;51.444;7.460;2023-08-07T00:28:20;8.40;;;0.70;;
59054;SDS011;44845;51.444;7.460;2023-08-07T00:30:46;0.63;;;0.40;;
59054;SDS011;44845;51.444;7.460;2023-08-07T00:33:11;0.98;;;0.50;;
59054;SDS011;44845;51.444;7.460;2023-08-07T00:35:37;3.13;;;0.50;;
59054;SDS011;44845;51.444;7.460;2023-08-07T00:38:02;3.03;;;0.40;;
59054;SDS011;44845;51.444;7.460;2023-08-07T00:40:28;0.85;;;0.40;;
59054;SDS011;44845;51.444;7.460;2023-08-07T00:43:00;3.80;;;0.38;;
59054;SDS011;44845;51.444;7.460;2023-08-07T00:45:26;2.88;;;0.50;;
59054;SDS011;44845;51.444;7.460;2023-08-07T00:47:51;0.50;;;0.50;;
59054;SDS011;44845;51.444;7.460;2023-08-07T00:50:16;1.30;;;0.52;;
59054;SDS011;44845;51.444;7.460;2023-08-07T00:52:42;1.05;;;0.45;;
59054;SDS011;44845;51.444;7.460;2023-08-07T00:55:07;1.40;;;0.52;;
59054;SDS011;44845;51.444;7.460;2023-08-07T00:57:33;1.90;;;0.70;;
59054;SDS011;44845;51.444;7.460;2023-08-07T00:59:59;6.35;;;0.98;;
59054;SDS011;44845;51.444;7.460;2023-08-07T01:02:24;1.13;;;0.70;;
59054;SDS011;44845;51.444;7.460;2023-08-07T01:04:50;1.17;;;0.68;;
59054;SDS011;44845;51.444;7.460;2023-08-07T01:07:15;2.35;;;1.00;;
59054;SDS011;44845;51.444;7.460;2023-08-07T01:09:41;7.60;;;0.98;;
59054;SDS011;44845;51.444;7.460;2023-08-07T01:12:16;14.20;;;1.23;;
59054;SDS011;44845;51.444;7.460;2023-08-07T01:14:53;5.32;;;0.80;;
59054;SDS011;44845;51.444;7.460;2023-08-07T01:17:22;5.47;;;1.20;;
59054;SDS011;44845;51.444;7.460;2023-08-07T01:19:49;3.60;;;1.00;;
59054;SDS011;44845;51.444;7.460;2023-08-07T01:22:17;2.67;;;1.10;;
59054;SDS011;44845;51.444;7.460;2023-08-07T01:24:44;1.27;;;1.00;;
59054;SDS011;44845;51.444;7.460;2023-08-07T01:29:57;3.65;;;1.38;;
59054;SDS011;44845;51.444;7.460;2023-08-07T01:32:26;3.38;;;1.30;;
59054;SDS011;44845;51.444;7.460;2023-08-07T01:34:57;5.03;;;0.88;;
59054;SDS011;44845;51.444;7.460;2023-08-07T01:37:26;11.77;;;1.50;;
59054;SDS011;44845;51.444;7.460;2023-08-07T01:39:55;3.40;;;1.30;;
59054;SDS011;44845;51.444;7.460;2023-08-07T01:42:23;5.68;;;1.90;;
59054;SDS011;44845;51.444;7.460;2023-08-07T01:44:49;3.42;;;1.50;;
59054;SDS011;44845;51.444;7.460;2023-08-07T01:47:15;6.10;;;1.40;;
59054;SDS011;44845;51.444;7.460;2023-08-07T01:49:40;6.53;;;1.60;;
59054;SDS011;44845;51.444;7.460;2023-08-07T01:52:06;1.58;;;1.48;;
59054;SDS011;44845;51.444;7.460;2023-08-07T01:54:32;2.70;;;1.40;;
59054;SDS011;44845;51.444;7.460;2023-08-07T01:56:58;2.38;;;1.40;;
59054;SDS011;44845;51.444;7.460;2023-08-07T01:59:23;3.22;;;1.20;;
59054;SDS011;44845;51.444;7.460;2023-08-07T02:01:48;7.57;;;1.63;;
59054;SDS011;44845;51.444;7.460;2023-08-07T02:04:14;5.40;;;1.77;;
59054;SDS011;44845;51.444;7.460;2023-08-07T02:06:39;2.25;;;2.03;;
59054;SDS011;44845;51.444;7.460;2023-08-07T02:09:04;4.47;;;2.38;;
59054;SDS011;44845;51.444;7.460;2023-08-07T02:11:30;4.93;;;2.65;;
59054;SDS011;44845;51.444;7.460;2023-08-07T02:13:55;5.47;;;2.60;;
59054;SDS011;44845;51.444;7.460;2023-08-07T02:16:21;4.10;;;2.42;;
59054;SDS011;44845;51.444;7.460;2023-08-07T02:18:46;9.38;;;2.10;;
59054;SDS011;44845;51.444;7.460;2023-08-07T02:21:11;4.28;;;1.88;;
59054;SDS011;44845;51.444;7.460;2023-08-07T02:23:37;4.38;;;2.28;;
59054;SDS011;44845;51.444;7.460;2023-08-07T02:26:02;2.05;;;1.85;;
59054;SDS011;44845;51.444;7.460;2023-08-07T02:28:27;4.47;;;2.00;;
59054;SDS011;44845;51.444;7.460;2023-08-07T02:30:53;3.45;;;1.67;;
59054;SDS011;44845;51.444;7.460;2023-08-07T02:33:19;3.35;;;1.40;;
59054;SDS011;44845;51.444;7.460;2023-08-07T02:35:44;3.17;;;1.40;;
59054;SDS011;44845;51.444;7.460;2023-08-07T02:38:10;4.97;;;1.40;;
59054;SDS011;44845;51.444;7.460;2023-08-07T02:40:36;3.92;;;1.30;;
59054;SDS011;44845;51.444;7.460;2023-08-07T02:43:01;4.07;;;1.10;;
59054;SDS011;44845;51.444;7.460;2023-08-07T02:45:26;7.15;;;1.10;;
59054;SDS011;44845;51.444;7.460;2023-08-07T02:47:54;2.00;;;1.20;;
59054;SDS011;44845;51.444;7.460;2023-08-07T02:50:19;3.10;;;1.20;;
59054;SDS011;44845;51.444;7.460;2023-08-07T02:52:45;2.38;;;0.90;;
59054;SDS011;44845;51.444;7.460;2023-08-07T02:55:10;1.23;;;1.10;;
59054;SDS011;44845;51.444;7.460;2023-08-07T02:57:36;1.30;;;1.20;;
59054;SDS011;44845;51.444;7.460;2023-08-07T03:00:01;2.83;;;1.35;;
59054;SDS011;44845;51.444;7.460;2023-08-07T03:02:27;2.42;;;1.23;;
59054;SDS011;44845;51.444;7.460;2023-08-07T03:04:53;4.93;;;1.00;;
59054;SDS011;44845;51.444;7.460;2023-08-07T03:07:19;2.17;;;1.15;;
59054;SDS011;44845;51.444;7.460;2023-08-07T03:09:47;4.97;;;1.08;;
59054;SDS011;44845;51.444;7.460;2023-08-07T03:12:12;2.67;;;1.20;;
59054;SDS011;44845;51.444;7.460;2023-08-07T03:14:38;5.18;;;0.82;;
59054;SDS011;44845;51.444;7.460;2023-08-07T03:17:03;1.40;;;0.98;;
59054;SDS011;44845;51.444;7.460;2023-08-07T03:19:29;3.08;;;1.00;;
59054;SDS011;44845;51.444;7.460;2023-08-07T03:21:54;6.60;;;0.95;;
59054;SDS011;44845;51.444;7.460;2023-08-07T03:24:20;7.35;;;0.80;;
59054;SDS011;44845;51.444;7.460;2023-08-07T03:26:45;5.88;;;1.20;;
59054;SDS011;44845;51.444;7.460;2023-08-07T03:29:12;2.63;;;1.15;;
59054;SDS011;44845;51.444;7.460;2023-08-07T03:31:37;1.33;;;0.90;;
59054;SDS011;44845;51.444;7.460;2023-08-07T03:34:03;3.42;;;0.90;;
59054;SDS011;44845;51.444;7.460;2023-08-07T03:36:28;2.83;;;0.77;;
59054;SDS011;44845;51.444;7.460;2023-08-07T03:38:54;4.55;;;0.77;;
59054;SDS011;44845;51.444;7.460;2023-08-07T03:41:19;5.93;;;1.00;;
59054;SDS011;44845;51.444;7.460;2023-08-07T03:43:45;2.15;;;0.80;;
59054;SDS011;44845;51.444;7.460;2023-08-07T03:46:10;1.33;;;0.68;;
59054;SDS011;44845;51.444;7.460;2023-08-07T03:48:37;5.43;;;0.63;;
59054;SDS011;44845;51.444;7.460;2023-08-07T03:51:03;0.68;;;0.50;;
59054;SDS011;44845;51.444;7.460;2023-08-07T03:53:29;1.17;;;0.80;;
59054;SDS011;44845;51.444;7.460;2023-08-07T03:55:55;1.40;;;0.70;;
59054;SDS011;44845;51.444;7.460;2023-08-07T03:58:20;1.55;;;0.60;;
59054;SDS011;44845;51.444;7.460;2023-08-07T04:00:45;4.93;;;0.80;;
59054;SDS011;44845;51.444;7.460;2023-08-07T04:03:11;5.95;;;0.80;;
59054;SDS011;44845;51.444;7.460;2023-08-07T04:05:36;2.00;;;0.70;;
59054;SDS011;44845;51.444;7.460;2023-08-07T04:08:02;4.03;;;0.93;;
59054;SDS011;44845;51.444;7.460;2023-08-07T04:10:27;1.55;;;0.80;;
59054;SDS011;44845;51.444;7.460;2023-08-07T04:12:52;2.38;;;1.02;;
59054;SDS011;44845;51.444;7.460;2023-08-07T04:15:18;5.95;;;1.77;;
59054;SDS011;44845;51.444;7.460;2023-08-07T04:17:43;4.90;;;1.65;;
59054;SDS011;44845;51.444;7.460;2023-08-07T04:20:08;4.35;;;2.17;;
59054;SDS011;44845;51.444;7.460;2023-08-07T04:22:35;3.10;;;2.03;;
59054;SDS011;44845;51.444;7.460;2023-08-07T04:25:00;5.78;;;2.22;;
59054;SDS011;44845;51.444;7.460;2023-08-07T04:27:26;6.10;;;2.70;;
59054;SDS011;44845;51.444;7.460;2023-08-07T04:29:51;10.98;;;3.63;;
59054;SDS011;44845;51.444;7.460;2023-08-07T04:32:17;8.05;;;3.40;;
59054;SDS011;44845;51.444;7.460;2023-08-07T04:34:42;6.13;;;3.38;;
59054;SDS011;44845;51.444;7.460;2023-08-07T04:37:08;8.15;;;4.45;;
59054;SDS011;44845;51.444;7.460;2023-08-07T04:39:33;7.22;;;4.20;;
59054;SDS011;44845;51.444;7.460;2023-08-07T04:41:59;11.52;;;4.20;;
59054;SDS011;44845;51.444;7.460;2023-08-07T04:44:24;10.05;;;4.57;;
59054;SDS011;44845;51.444;7.460;2023-08-07T04:46:49;8.07;;;4.07;;
59054;SDS011;44845;51.444;7.460;2023-08-07T04:49:15;12.25;;;4.90;;
59054;SDS011;44845;51.444;7.460;2023-08-07T04:51:40;11.43;;;5.40;;
59054;SDS011;44845;51.444;7.460;2023-08-07T04:54:06;10.07;;;5.40;;
59054;SDS011;44845;51.444;7.460;2023-08-07T04:56:31;14.07;;;5.60;;
59054;SDS011;44845;51.444;7.460;2023-08-07T04:58:56;9.25;;;5.22;;
59054;SDS011;44845;51.444;7.460;2023-08-07T05:01:22;8.73;;;4.80;;
59054;SDS011;44845;51.444;7.460;2023-08-07T05:03:47;9.68;;;5.43;;
59054;SDS011;44845;51.444;7.460;2023-08-07T05:06:12;8.50;;;4.63;;
59054;SDS011;44845;51.444;7.460;2023-08-07T05:08:38;7.32;;;4.60;;
59054;SDS011;44845;51.444;7.460;2023-08-07T05:11:03;8.05;;;4.50;;
59054;SDS011;44845;51.444;7.460;2023-08-07T05:13:29;9.25;;;4.50;;
59054;SDS011;44845;51.444;7.460;2023-08-07T05:15:54;7.80;;;4.35;;
59054;SDS011;44845;51.444;7.460;2023-08-07T05:18:19;9.13;;;4.55;;
59054;SDS011;44845;51.444;7.460;2023-08-07T05:20:45;7.45;;;4.65;;
59054;SDS011;44845;51.444;7.460;2023-08-07T05:23:10;12.25;;;5.03;;
59054;SDS011;44845;51.444;7.460;2023-08-07T05:25:36;8.40;;;4.78;;
59054;SDS011;44845;51.444;7.460;2023-08-07T05:28:02;14.02;;;5.18;;
59054;SDS011;44845;51.444;7.460;2023-08-07T05:30:27;6.97;;;4.68;;
59054;SDS011;44845;51.444;7.460;2023-08-07T05:32:53;9.80;;;5.25;;
59054;SDS011;44845;51.444;7.460;2023-08-07T05:35:18;7.78;;;5.13;;
59054;SDS011;44845;51.444;7.460;2023-08-07T05:37:43;6.38;;;4.63;;
59054;SDS011;44845;51.444;7.460;2023-08-07T05:40:09;8.85;;;4.72;;
59054;SDS011;44845;51.444;7.460;2023-08-07T05:42:37;15.73;;;5.03;;
59054;SDS011;44845;51.444;7.460;2023-08-07T05:45:02;9.35;;;4.35;;
59054;SDS011;44845;51.444;7.460;2023-08-07T05:47:28;8.93;;;3.90;;
59054;SDS011;44845;51.444;7.460;2023-08-07T05:49:54;11.77;;;3.80;;
59054;SDS011;44845;51.444;7.460;2023-08-07T05:52:19;5.82;;;3.50;;
59054;SDS011;44845;51.444;7.460;2023-08-07T05:54:45;7.72;;;3.90;;
59054;SDS011;44845;51.444;7.460;2023-08-07T05:57:10;4.63;;;1.83;;
59054;SDS011;44845;51.444;7.460;2023-08-07T05:59:36;5.88;;;2.03;;
59054;SDS011;44845;51.444;7.460;2023-08-07T06:02:02;4.93;;;1.85;;
59054;SDS011;44845;51.444;7.460;2023-08-07T06:04:28;3.47;;;1.60;;
59054;SDS011;44845;51.444;7.460;2023-08-07T06:06:53;3.22;;;1.58;;
59054;SDS011;44845;51.444;7.460;2023-08-07T06:09:18;2.33;;;1.17;;
59054;SDS011;44845;51.444;7.460;2023-08-07T06:11:46;4.88;;;1.58;;
59054;SDS011;44845;51.444;7.460;2023-08-07T06:14:12;3.95;;;1.58;;
59054;SDS011;44845;51.444;7.460;2023-08-07T06:16:37;6.45;;;1.80;;
59054;SDS011;44845;51.444;7.460;2023-08-07T06:19:02;4.38;;;1.73;;
59054;SDS011;44845;51.444;7.460;2023-08-07T06:21:28;3.72;;;1.63;;
59054;SDS011;44845;51.444;7.460;2023-08-07T06:23:54;2.42;;;1.50;;
59054;SDS011;44845;51.444;7.460;2023-08-07T06:26:19;2.53;;;1.30;;
59054;SDS011;44845;51.444;7.460;2023-08-07T06:28:44;4.78;;;1.60;;
59054;SDS011;44845;51.444;7.460;2023-08-07T06:31:10;2.10;;;1.40;;
59054;SDS011;44845;51.444;7.460;2023-08-07T06:33:36;3.20;;;1.80;;
59054;SDS011;44845;51.444;7.460;2023-08-07T06:36:03;5.18;;;1.75;;
59054;SDS011;44845;51.444;7.460;2023-08-07T06:38:29;9.15;;;2.22;;
59054;SDS011;44845;51.444;7.460;2023-08-07T06:40:55;5.63;;;2.05;;
59054;SDS011;44845;51.444;7.460;2023-08-07T06:43:21;3.97;;;2.60;;
59054;SDS011;44845;51.444;7.460;2023-08-07T06:45:47;3.72;;;2.80;;
59054;SDS011;44845;51.444;7.460;2023-08-07T06:48:14;3.35;;;3.05;;
59054;SDS011;44845;51.444;7.460;2023-08-07T06:50:40;5.95;;;3.55;;
59054;SDS011;44845;51.444;7.460;2023-08-07T06:53:05;7.00;;;4.28;;
59054;SDS011;44845;51.444;7.460;2023-08-07T06:55:30;6.20;;;3.88;;
59054;SDS011;44845;51.444;7.460;2023-08-07T06:57:56;5.18;;;3.72;;
59054;SDS011;44845;51.444;7.460;2023-08-07T07:00:21;7.50;;;3.65;;
59054;SDS011;44845;51.444;7.460;2023-08-07T07:02:47;5.63;;;3.55;;
59054;SDS011;44845;51.444;7.460;2023-08-07T07:05:12;4.60;;;3.78;;
59054;SDS011;44845;51.444;7.460;2023-08-07T07:07:38;5.32;;;3.83;;
59054;SDS011;44845;51.444;7.460;2023-08-07T07:10:04;4.50;;;3.83;;
59054;SDS011;44845;51.444;7.460;2023-08-07T07:12:29;3.80;;;3.20;;
59054;SDS011;44845;51.444;7.460;2023-08-07T07:14:55;7.78;;;3.20;;
59054;SDS011;44845;51.444;7.460;2023-08-07T07:17:20;3.85;;;3.35;;
59054;SDS011;44845;51.444;7.460;2023-08-07T07:19:46;6.25;;;3.30;;
59054;SDS011;44845;51.444;7.460;2023-08-07T07:22:11;5.30;;;3.03;;
59054;SDS011;44845;51.444;7.460;2023-08-07T07:24:37;5.65;;;3.60;;
59054;SDS011;44845;51.444;7.460;2023-08-07T07:27:03;4.18;;;2.97;;
59054;SDS011;44845;51.444;7.460;2023-08-07T07:29:28;3.50;;;3.20;;
59054;SDS011;44845;51.444;7.460;2023-08-07T07:31:54;3.95;;;2.85;;
59054;SDS011;44845;51.444;7.460;2023-08-07T07:34:20;4.05;;;2.65;;
59054;SDS011;44845;51.444;7.460;2023-08-07T07:36:45;3.92;;;2.38;;
59054;SDS011;44845;51.444;7.460;2023-08-07T07:39:11;3.20;;;2.50;;
59054;SDS011;44845;51.444;7.460;2023-08-07T07:41:36;7.32;;;2.42;;
59054;SDS011;44845;51.444;7.460;2023-08-07T07:44:02;6.07;;;2.47;;
59054;SDS011;44845;51.444;7.460;2023-08-07T07:46:27;3.60;;;2.47;;
59054;SDS011;44845;51.444;7.460;2023-08-07T07:48:53;4.95;;;2.13;;
59054;SDS011;44845;51.444;7.460;2023-08-07T07:51:19;3.05;;;2.00;;
59054;SDS011;44845;51.444;7.460;2023-08-07T07:53:44;3.50;;;1.55;;
59054;SDS011;44845;51.444;7.460;2023-08-07T07:56:10;3.53;;;2.30;;
59054;SDS011;44845;51.444;7.460;2023-08-07T07:58:35;2.97;;;2.45;;
59054;SDS011;44845;51.444;7.460;2023-08-07T08:01:01;5.70;;;2.10;;
59054;SDS011;44845;51.444;7.460;2023-08-07T08:03:26;4.35;;;2.03;;
59054;SDS011;44845;51.444;7.460;2023-08-07T08:05:52;4.07;;;2.28;;
59054;SDS011;44845;51.444;7.460;2023-08-07T08:08:18;3.13;;;1.80;;
59054;SDS011;44845;51.444;7.460;2023-08-07T08:10:44;3.97;;;1.80;;
59054;SDS011;44845;51.444;7.460;2023-08-07T08:13:12;3.05;;;1.65;;
59054;SDS011;44845;51.444;7.460;2023-08-07T08:15:37;2.65;;;2.13;;
59054;SDS011;44845;51.444;7.460;2023-08-07T08:18:03;7.38;;;2.00;;
59054;SDS011;44845;51.444;7.460;2023-08-07T08:20:28;5.60;;;2.03;;
59054;SDS011;44845;51.444;7.460;2023-08-07T08:22:56;2.03;;;1.65;;
59054;SDS011;44845;51.444;7.460;2023-08-07T08:25:21;2.10;;;1.90;;
59054;SDS011;44845;51.444;7.460;2023-08-07T08:27:46;3.25;;;1.88;;
59054;SDS011;44845;51.444;7.460;2023-08-07T08:30:12;2.17;;;1.90;;
59054;SDS011;44845;51.444;7.460;2023-08-07T08:32:37;6.32;;;2.10;;
59054;SDS011;44845;51.444;7.460;2023-08-07T08:35:04;3.50;;;2.10;;
59054;SDS011;44845;51.444;7.460;2023-08-07T08:37:29;4.25;;;1.92;;
59054;SDS011;44845;51.444;7.460;2023-08-07T08:39:55;4.28;;;1.80;;
59054;SDS011;44845;51.444;7.460;2023-08-07T08:42:20;5.93;;;1.60;;
59054;SDS011;44845;51.444;7.460;2023-08-07T08:44:52;7.72;;;1.52;;
59054;SDS011;44845;51.444;7.460;2023-08-07T08:47:19;3.20;;;1.70;;
59054;SDS011;44845;51.444;7.460;2023-08-07T08:49:47;3.63;;;1.15;;
59054;SDS011;44845;51.444;7.460;2023-08-07T08:52:14;5.88;;;1.55;;
59054;SDS011;44845;51.444;7.460;2023-08-07T08:54:40;3.50;;;0.93;;
59054;SDS011;44845;51.444;7.460;2023-08-07T08:57:06;2.58;;;0.90;;
59054;SDS011;44845;51.444;7.460;2023-08-07T08:59:33;2.35;;;0.80;;
59054;SDS011;44845;51.444;7.460;2023-08-07T09:01:59;3.22;;;0.85;;
59054;SDS011;44845;51.444;7.460;2023-08-07T09:04:24;1.40;;;0.82;;
59054;SDS011;44845;51.444;7.460;2023-08-07T09:06:50;1.33;;;0.50;;
59054;SDS011;44845;51.444;7.460;2023-08-07T09:09:16;1.42;;;0.77;;
59054;SDS011;44845;51.444;7.460;2023-08-07T09:11:43;1.45;;;0.52;;
59054;SDS011;44845;51.444;7.460;2023-08-07T09:14:11;1.33;;;0.75;;
59054;SDS011;44845;51.444;7.460;2023-08-07T09:16:45;4.50;;;0.90;;
59054;SDS011;44845;51.444;7.460;2023-08-07T09:19:13;2.67;;;1.20;;
59054;SDS011;44845;51.444;7.460;2023-08-07T09:21:38;2.10;;;1.30;;
59054;SDS011;44845;51.444;7.460;2023-08-07T09:24:04;3.22;;;1.40;;
59054;SDS011;44845;51.444;7.460;2023-08-07T09:26:29;4.75;;;1.60;;
59054;SDS011;44845;51.444;7.460;2023-08-07T09:29:00;4.90;;;1.77;;
59054;SDS011;44845;51.444;7.460;2023-08-07T09:31:27;6.13;;;2.28;;
59054;SDS011;44845;51.444;7.460;2023-08-07T09:33:52;6.07;;;2.22;;
59054;SDS011;44845;51.444;7.460;2023-08-07T09:36:18;12.70;;;2.38;;
59054;SDS011;44845;51.444;7.460;2023-08-07T09:38:44;12.40;;;2.70;;
59054;SDS011;44845;51.444;7.460;2023-08-07T09:41:17;9.18;;;2.42;;
59054;SDS011;44845;51.444;7.460;2023-08-07T09:43:43;13.18;;;2.42;;
59054;SDS011;44845;51.444;7.460;2023-08-07T09:46:08;8.88;;;2.50;;
59054;SDS011;44845;51.444;7.460;2023-08-07T09:48:40;6.00;;;2.30;;
59054;SDS011;44845;51.444;7.460;2023-08-07T09:51:07;8.87;;;2.90;;
59054;SDS011;44845;51.444;7.460;2023-08-07T09:53:32;7.97;;;2.58;;
59054;SDS011;44845;51.444;7.460;2023-08-07T09:55:58;9.77;;;2.60;;
59054;SDS011;44845;51.444;7.460;2023-08-07T09:58:24;9.20;;;3.10;;
59054;SDS011;44845;51.444;7.460;2023-08-07T10:00:50;8.05;;;2.78;;
59054;SDS011;44845;51.444;7.460;2023-08-07T10:03:18;9.70;;;2.72;;
59054;SDS011;44845;51.444;7.460;2023-08-07T10:05:44;12.45;;;3.05;;
59054;SDS011;44845;51.444;7.460;2023-08-07T10:08:10;9.50;;;2.78;;
59054;SDS011;44845;51.444;7.460;2023-08-07T10:10:37;14.95;;;3.05;;
59054;SDS011;44845;51.444;7.460;2023-08-07T10:13:05;14.98;;;3.72;;
59054;SDS011;44845;51.444;7.460;2023-08-07T10:15:32;10.68;;;3.00;;
59054;SDS011;44845;51.444;7.460;2023-08-07T10:17:59;7.05;;;2.67;;
59054;SDS011;44845;51.444;7.460;2023-08-07T10:20:26;8.15;;;2.83;;
59054;SDS011;44845;51.444;7.460;2023-08-07T10:22:52;6.75;;;2.97;;
59054;SDS011;44845;51.444;7.460;2023-08-07T10:25:22;8.40;;;2.88;;
59054;SDS011;44845;51.444;7.460;2023-08-07T10:27:49;12.00;;;2.72;;
59054;SDS011;44845;51.444;7.460;2023-08-07T10:30:18;8.45;;;2.28;;
59054;SDS011;44845;51.444;7.460;2023-08-07T10:32:45;5.15;;;2.47;;
59054;SDS011;44845;51.444;7.460;2023-08-07T10:35:24;5.88;;;1.58;;
59054;SDS011;44845;51.444;7.460;2023-08-07T10:37:50;7.07;;;1.65;;
59054;SDS011;44845;51.444;7.460;2023-08-07T10:40:18;9.73;;;1.80;;
59054;SDS011;44845;51.444;7.460;2023-08-07T10:42:58;6.15;;;2.00;;
59054;SDS011;44845;51.444;7.460;2023-08-07T10:45:26;11.20;;;2.50;;
59054;SDS011;44845;51.444;7.460;2023-08-07T10:52:56;4.72;;;2.35;;
59054;SDS011;44845;51.444;7.460;2023-08-07T10:55:21;8.52;;;3.00;;
59054;SDS011;44845;51.444;7.460;2023-08-07T10:57:48;6.15;;;2.60;;
59054;SDS011;44845;51.444;7.460;2023-08-07T11:00:14;9.65;;;3.35;;
59054;SDS011;44845;51.444;7.460;2023-08-07T11:02:41;8.45;;;2.72;;
59054;SDS011;44845;51.444;7.460;2023-08-07T11:05:07;6.18;;;2.92;;
59054;SDS011;44845;51.444;7.460;2023-08-07T11:07:32;6.47;;;2.47;;
59054;SDS011;44845;51.444;7.460;2023-08-07T11:09:58;9.35;;;2.88;;
59054;SDS011;44845;51.444;7.460;2023-08-07T11:12:24;12.73;;;2.88;;
59054;SDS011;44845;51.444;7.460;2023-08-07T11:14:51;6.57;;;2.50;;
59054;SDS011;44845;51.444;7.460;2023-08-07T11:17:17;6.68;;;2.38;;
59054;SDS011;44845;51.444;7.460;2023-08-07T11:19:43;8.25;;;2.55;;
59054;SDS011;44845;51.444;7.460;2023-08-07T11:22:11;9.85;;;2.70;;
59054;SDS011;44845;51.444;7.460;2023-08-07T11:24:36;11.95;;;2.65;;
59054;SDS011;44845;51.444;7.460;2023-08-07T11:27:02;11.27;;;2.60;;
59054;SDS011;44845;51.444;7.460;2023-08-07T11:29:28;12.88;;;2.65;;
59054;SDS011;44845;51.444;7.460;2023-08-07T11:31:55;9.20;;;2.40;;
59054;SDS011;44845;51.444;7.460;2023-08-07T11:34:21;6.63;;;2.22;;
59054;SDS011;44845;51.444;7.460;2023-08-07T11:36:47;6.30;;;2.30;;
59054;SDS011;44845;51.444;7.460;2023-08-07T11:39:13;7.95;;;2.30;;
59054;SDS011;44845;51.444;7.460;2023-08-07T11:41:39;9.07;;;2.70;;
59054;SDS011;44845;51.444;7.460;2023-08-07T11:44:07;7.30;;;2.22;;
59054;SDS011;44845;51.444;7.460;2023-08-07T11:46:33;9.88;;;2.80;;
59054;SDS011;44845;51.444;7.460;2023-08-07T11:48:58;4.03;;;1.75;;
59054;SDS011;44845;51.444;7.460;2023-08-07T11:51:24;8.27;;;2.15;;
59054;SDS011;44845;51.444;7.460;2023-08-07T11:53:49;7.80;;;2.30;;
59054;SDS011;44845;51.444;7.460;2023-08-07T11:56:15;8.48;;;2.40;;
59054;SDS011;44845;51.444;7.460;2023-08-07T11:58:42;12.55;;;2.85;;
59054;SDS011;44845;51.444;7.460;2023-08-07T12:01:18;6.57;;;1.92;;
59054;SDS011;44845;51.444;7.460;2023-08-07T12:06:19;7.53;;;2.30;;
59054;SDS011;44845;51.444;7.460;2023-08-07T12:08:45;8.27;;;2.72;;
59054;SDS011;44845;51.444;7.460;2023-08-07T12:11:11;6.85;;;2.03;;
59054;SDS011;44845;51.444;7.460;2023-08-07T12:13:38;9.40;;;2.22;;
59054;SDS011;44845;51.444;7.460;2023-08-07T12:16:08;10.65;;;2.17;;
59054;SDS011;44845;51.444;7.460;2023-08-07T12:18:34;10.85;;;2.08;;
59054;SDS011;44845;51.444;7.460;2023-08-07T12:21:03;7.07;;;2.15;;
59054;SDS011;44845;51.444;7.460;2023-08-07T12:23:32;6.53;;;2.15;;
59054;SDS011;44845;51.444;7.460;2023-08-07T12:25:59;12.05;;;2.42;;
59054;SDS011;44845;51.444;7.460;2023-08-07T12:28:25;6.07;;;2.03;;
59054;SDS011;44845;51.444;7.460;2023-08-07T12:30:50;7.90;;;1.98;;
59054;SDS011;44845;51.444;7.460;2023-08-07T12:33:16;11.52;;;1.90;;
59054;SDS011;44845;51.444;7.460;2023-08-07T12:35:42;7.65;;;2.25;;
59054;SDS011;44845;51.444;7.460;2023-08-07T12:38:08;7.57;;;2.00;;
59054;SDS011;44845;51.444;7.460;2023-08-07T12:40:34;4.32;;;1.85;;
59054;SDS011;44845;51.444;7.460;2023-08-07T12:43:06;6.95;;;1.73;;
59054;SDS011;44845;51.444;7.460;2023-08-07T12:45:32;12.23;;;2.17;;
59054;SDS011;44845;51.444;7.460;2023-08-07T12:47:58;4.78;;;1.80;;
59054;SDS011;44845;51.444;7.460;2023-08-07T12:50:24;8.25;;;2.00;;
59054;SDS011;44845;51.444;7.460;2023-08-07T12:52:50;7.65;;;2.08;;
59054;SDS011;44845;51.444;7.460;2023-08-07T12:55:16;10.90;;;1.75;;
59054;SDS011;44845;51.444;7.460;2023-08-07T12:57:41;9.43;;;2.08;;
59054;SDS011;44845;51.444;7.460;2023-08-07T13:00:08;6.13;;;1.73;;
59054;SDS011;44845;51.444;7.460;2023-08-07T13:02:36;8.18;;;2.17;;
59054;SDS011;44845;51.444;7.460;2023-08-07T13:05:02;6.60;;;2.03;;
59054;SDS011;44845;51.444;7.460;2023-08-07T13:07:27;6.40;;;2.15;;
59054;SDS011;44845;51.444;7.460;2023-08-07T13:09:53;5.70;;;1.90;;
59054;SDS011;44845;51.444;7.460;2023-08-07T13:12:20;6.05;;;1.90;;
59054;SDS011;44845;51.444;7.460;2023-08-07T13:14:45;6.25;;;1.90;;
59054;SDS011;44845;51.444;7.460;2023-08-07T13:17:11;4.53;;;1.60;;
59054;SDS011;44845;51.444;7.460;2023-08-07T13:19:36;4.80;;;1.77;;
59054;SDS011;44845;51.444;7.460;2023-08-07T13:22:01;5.75;;;1.80;;
59054;SDS011;44845;51.444;7.460;2023-08-07T13:24:27;6.28;;;1.63;;
59054;SDS011;44845;51.444;7.460;2023-08-07T13:26:52;3.97;;;1.40;;
59054;SDS011;44845;51.444;7.460;2023-08-07T13:29:18;5.20;;;1.75;;
59054;SDS011;44845;51.444;7.460;2023-08-07T13:31:43;6.72;;;1.58;;
59054;SDS011;44845;51.444;7.460;2023-08-07T13:34:12;5.82;;;1.90;;
59054;SDS011;44845;51.444;7.460;2023-08-07T13:36:37;6.55;;;1.90;;
59054;SDS011;44845;51.444;7.460;2023-08-07T13:39:04;6.05;;;1.83;;
59054;SDS011;44845;51.444;7.460;2023-08-07T13:41:30;5.90;;;1.80;;
59054;SDS011;44845;51.444;7.460;2023-08-07T13:43:56;8.38;;;1.70;;
59054;SDS011;44845;51.444;7.460;2023-08-07T13:46:21;6.90;;;1.60;;
59054;SDS011;44845;51.444;7.460;2023-08-07T13:48:47;5.00;;;1.42;;
59054;SDS011;44845;51.444;7.460;2023-08-07T13:51:13;5.88;;;1.25;;
59054;SDS011;44845;51.444;7.460;2023-08-07T13:53:39;5.45;;;1.58;;
59054;SDS011;44845;51.444;7.460;2023-08-07T13:56:07;7.78;;;1.38;;
59054;SDS011;44845;51.444;7.460;2023-08-07T13:58:34;6.10;;;1.30;;
59054;SDS011;44845;51.444;7.460;2023-08-07T14:00:59;5.15;;;1.58;;
59054;SDS011;44845;51.444;7.460;2023-08-07T14:03:24;4.68;;;1.27;;
59054;SDS011;44845;51.444;7.460;2023-08-07T14:05:50;7.75;;;1.85;;
59054;SDS011;44845;51.444;7.460;2023-08-07T14:08:15;4.68;;;1.75;;
59054;SDS011;44845;51.444;7.460;2023-08-07T14:10:41;6.15;;;1.60;;
59054;SDS011;44845;51.444;7.460;2023-08-07T14:13:07;5.07;;;2.10;;
59054;SDS011;44845;51.444;7.460;2023-08-07T14:15:32;6.53;;;1.70;;
59054;SDS011;44845;51.444;7.460;2023-08-07T14:17:57;4.93;;;1.60;;
59054;SDS011;44845;51.444;7.460;2023-08-07T14:20:23;7.22;;;2.10;;
59054;SDS011;44845;51.444;7.460;2023-08-07T14:22:49;3.83;;;1.75;;
59054;SDS011;44845;51.444;7.460;2023-08-07T14:25:15;8.35;;;2.03;;
59054;SDS011;44845;51.444;7.460;2023-08-07T14:27:40;5.43;;;1.60;;
59054;SDS011;44845;51.444;7.460;2023-08-07T14:30:06;6.45;;;2.75;;
59054;SDS011;44845;51.444;7.460;2023-08-07T14:32:32;5.32;;;1.80;;
59054;SDS011;44845;51.444;7.460;2023-08-07T14:34:57;9.35;;;1.70;;
59054;SDS011;44845;51.444;7.460;2023-08-07T14:37:22;8.45;;;1.60;;
59054;SDS011;44845;51.444;7.460;2023-08-07T14:39:48;3.90;;;1.52;;
59054;SDS011;44845;51.444;7.460;2023-08-07T14:42:13;5.60;;;1.50;;
59054;SDS011;44845;51.444;7.460;2023-08-07T14:44:39;5.25;;;1.20;;
59054;SDS011;44845;51.444;7.460;2023-08-07T14:47:04;5.20;;;1.20;;
59054;SDS011;44845;51.444;7.460;2023-08-07T14:49:29;3.95;;;1.63;;